Time;durP1;ratioP1;P1;durP2;ratioP2;P2;SDS_P1;SDS_P2;PMS_P1;PMS_P2;Temp;Humidity;BMP_temperature;BMP_pressure;BME280_temperature;BME280_humidity;BME280_pressure;Samples;Min_cycle;Max_cycle;Signal;HPM_P1;HPM_P2
2022/09/09 00:01:44;;;;;;;3.10;2.90;;;16.40;99.90;;;;;;5131301;27;20216;-68
2022/09/09 00:04:15;;;;;;;3.57;2.97;;;16.40;99.90;;;;;;5131111;27;20228;-68
2022/09/09 00:06:46;;;;;;;3.20;3.00;;;16.40;99.90;;;;;;5131225;27;20285;-68
2022/09/09 00:09:17;;;;;;;3.40;3.10;;;16.50;99.90;;;;;;5125825;27;20197;-67
2022/09/09 00:11:48;;;;;;;3.13;2.93;;;16.50;99.90;;;;;;5110833;27;20221;-67
2022/09/09 00:14:23;;;;;;;3.17;3.03;;;16.60;99.90;;;;;;5122559;27;20190;-67
2022/09/09 00:16:56;;;;;;;2.90;2.60;;;16.60;99.90;;;;;;5130941;27;20284;-68
2022/09/09 00:19:31;;;;;;;3.40;3.20;;;16.60;99.90;;;;;;5135727;27;20193;-68
2022/09/09 00:22:09;;;;;;;3.30;3.10;;;16.60;99.90;;;;;;5121950;27;20201;-69
2022/09/09 00:24:42;;;;;;;3.13;3.03;;;16.60;99.90;;;;;;5131125;27;20204;-68
2022/09/09 00:27:18;;;;;;;3.73;3.40;;;16.70;99.90;;;;;;5129821;27;20688;-68
2022/09/09 00:29:53;;;;;;;3.60;3.40;;;16.60;99.90;;;;;;5111718;27;20696;-68
2022/09/09 00:32:21;;;;;;;4.03;3.73;;;16.60;99.90;;;;;;5113077;27;20189;-68
2022/09/09 00:34:51;;;;;;;3.80;3.60;;;16.60;99.90;;;;;;5110176;28;20207;-68
2022/09/09 00:37:20;;;;;;;3.97;3.67;;;16.60;99.90;;;;;;5109819;28;20225;-68
2022/09/09 00:39:51;;;;;;;4.23;3.83;;;16.70;99.90;;;;;;5109962;27;20194;-68
2022/09/09 00:42:22;;;;;;;4.17;3.97;;;16.60;99.90;;;;;;5109737;28;20289;-68
2022/09/09 00:45:02;;;;;;;4.70;4.30;;;16.60;99.90;;;;;;5118977;27;20201;-68
2022/09/09 00:47:42;;;;;;;4.30;4.10;;;16.60;99.90;;;;;;5130246;27;20241;-68
2022/09/09 00:50:32;;;;;;;5.03;4.57;;;16.60;99.90;;;;;;5129939;27;20227;-67
2022/09/09 00:53:11;;;;;;;4.90;4.47;;;16.70;99.90;;;;;;5109664;28;20684;-67
2022/09/09 00:55:46;;;;;;;4.57;4.27;;;16.70;99.90;;;;;;5124003;27;20196;-68
2022/09/09 00:58:13;;;;;;;4.00;3.80;;;16.70;99.90;;;;;;5130389;27;20240;-68
2022/09/09 01:00:44;;;;;;;4.80;4.50;;;16.60;99.90;;;;;;5130098;27;20205;-69
2022/09/09 01:03:30;;;;;;;4.97;4.67;;;16.60;99.90;;;;;;5130363;27;20230;-68
2022/09/09 01:06:16;;;;;;;5.30;5.00;;;16.60;99.90;;;;;;5130390;27;20186;-68
2022/09/09 01:09:16;;;;;;;4.57;4.37;;;16.60;99.90;;;;;;5129437;27;20416;-68
2022/09/09 01:11:56;;;;;;;4.90;4.60;;;16.60;99.90;;;;;;5095806;27;20201;-68
2022/09/09 01:14:35;;;;;;;4.73;4.40;;;16.60;99.90;;;;;;5122154;27;20221;-68
2022/09/09 01:17:06;;;;;;;4.53;4.23;;;16.60;99.90;;;;;;5117436;27;20206;-68
2022/09/09 01:19:45;;;;;;;4.80;4.40;;;16.50;99.90;;;;;;5109470;27;20194;-67
2022/09/09 01:22:21;;;;;;;4.67;4.27;;;16.50;99.90;;;;;;5109046;28;20703;-69
2022/09/09 01:25:13;;;;;;;4.53;4.23;;;16.50;99.90;;;;;;5109305;28;20202;-69
2022/09/09 01:27:42;;;;;;;4.43;4.13;;;16.50;99.90;;;;;;5109566;27;20233;-69
2022/09/09 01:30:12;;;;;;;4.87;4.57;;;16.50;99.90;;;;;;5109137;28;20206;-69
2022/09/09 01:32:42;;;;;;;4.93;4.63;;;16.50;99.90;;;;;;5120142;27;20723;-69
2022/09/09 01:35:12;;;;;;;4.43;4.13;;;16.40;99.90;;;;;;5129272;27;20918;-68
2022/09/09 01:37:39;;;;;;;4.40;4.20;;;16.40;99.90;;;;;;5116135;27;20217;-67
2022/09/09 01:40:07;;;;;;;4.80;4.50;;;16.40;99.90;;;;;;5108898;28;20219;-67
2022/09/09 01:42:34;;;;;;;5.40;4.17;;;16.40;99.90;;;;;;5108562;28;20687;-68
2022/09/09 01:45:02;;;;;;;4.73;4.33;;;16.40;99.90;;;;;;5119291;27;20202;-67
2022/09/09 01:47:29;;;;;;;4.37;4.17;;;16.40;99.90;;;;;;5129079;27;20233;-68
2022/09/09 01:49:56;;;;;;;4.67;4.33;;;16.40;99.90;;;;;;5113884;27;20213;-68
2022/09/09 01:52:23;;;;;;;5.07;4.67;;;16.40;99.90;;;;;;5108628;28;20218;-68
2022/09/09 01:54:50;;;;;;;4.87;4.53;;;16.40;99.90;;;;;;5108707;28;20338;-66
2022/09/09 01:57:22;;;;;;;4.57;4.20;;;16.40;99.90;;;;;;5108753;27;20210;-70
2022/09/09 02:00:08;;;;;;;4.77;4.57;;;16.40;99.90;;;;;;5108349;28;20194;-70
2022/09/09 02:02:40;;;;;;;4.97;4.57;;;16.40;99.90;;;;;;5108358;27;20198;-68
2022/09/09 02:05:17;;;;;;;5.93;4.93;;;16.40;99.90;;;;;;5108664;28;20190;-68
2022/09/09 02:07:48;;;;;;;5.33;4.83;;;16.40;99.90;;;;;;5108343;28;20229;-68
2022/09/09 02:10:20;;;;;;;5.13;4.83;;;16.40;99.90;;;;;;5108537;28;20625;-68
2022/09/09 02:12:51;;;;;;;5.20;4.80;;;16.40;99.90;;;;;;5124929;27;20199;-68
2022/09/09 02:15:26;;;;;;;5.07;4.77;;;16.40;99.90;;;;;;5128290;27;20199;-68
2022/09/09 02:17:56;;;;;;;4.73;4.43;;;16.30;99.90;;;;;;5128713;27;20195;-68
2022/09/09 02:20:27;;;;;;;5.50;5.10;;;16.30;99.90;;;;;;5128365;27;20209;-68
2022/09/09 02:22:54;;;;;;;7.10;4.90;;;16.30;99.90;;;;;;5128667;27;20204;-68
2022/09/09 02:25:26;;;;;;;4.73;4.43;;;16.30;99.90;;;;;;5116943;27;20209;-68
2022/09/09 02:27:53;;;;;;;5.07;4.70;;;16.30;99.90;;;;;;5110788;27;20217;-68
2022/09/09 02:30:21;;;;;;;7.17;4.97;;;16.30;99.90;;;;;;5116627;27;20206;-68
2022/09/09 02:32:51;;;;;;;4.80;4.50;;;16.30;99.90;;;;;;5108195;28;20202;-68
2022/09/09 02:35:21;;;;;;;4.70;4.40;;;16.30;99.90;;;;;;5107652;28;20198;-68
2022/09/09 02:37:50;;;;;;;5.13;4.80;;;16.20;99.90;;;;;;5120488;27;20286;-67
2022/09/09 02:40:17;;;;;;;4.77;4.43;;;16.20;99.90;;;;;;5107929;28;20202;-67
2022/09/09 02:42:46;;;;;;;5.07;4.77;;;16.20;99.90;;;;;;5110179;27;20226;-67
2022/09/09 02:45:17;;;;;;;5.67;5.33;;;16.20;99.90;;;;;;5126281;27;20202;-67
2022/09/09 02:47:52;;;;;;;5.27;4.77;;;16.20;99.90;;;;;;5124323;27;20230;-68
2022/09/09 02:50:23;;;;;;;5.53;5.13;;;16.20;99.90;;;;;;5124809;28;20197;-68
2022/09/09 02:53:02;;;;;;;5.67;4.93;;;16.20;99.90;;;;;;5128205;27;20660;-68
2022/09/09 02:55:39;;;;;;;5.10;4.80;;;16.20;99.90;;;;;;5109932;27;20212;-68
2022/09/09 02:58:11;;;;;;;5.13;4.70;;;16.20;99.90;;;;;;5108005;28;20213;-68
2022/09/09 03:00:39;;;;;;;5.40;4.97;;;16.20;99.90;;;;;;5107840;28;20204;-69
2022/09/09 03:03:08;;;;;;;5.67;5.23;;;16.10;99.90;;;;;;5108116;28;20229;-69
2022/09/09 03:05:35;;;;;;;5.70;5.30;;;16.10;99.90;;;;;;5107511;28;20571;-68
2022/09/09 03:08:03;;;;;;;5.40;5.10;;;16.20;99.90;;;;;;5120711;27;20709;-68
2022/09/09 03:10:30;;;;;;;4.63;4.33;;;16.20;99.90;;;;;;5128327;27;20201;-68
2022/09/09 03:12:57;;;;;;;5.23;4.93;;;16.10;99.90;;;;;;5122333;27;20204;-68
2022/09/09 03:15:23;;;;;;;5.00;4.70;;;16.10;99.90;;;;;;5127736;27;20678;-69
2022/09/09 03:17:50;;;;;;;4.97;4.67;;;16.10;99.90;;;;;;5128278;27;20208;-68
2022/09/09 03:20:19;;;;;;;5.93;5.37;;;16.20;99.90;;;;;;5128300;27;20201;-68
2022/09/09 03:22:45;;;;;;;5.10;4.80;;;16.10;99.90;;;;;;5128210;27;20202;-68
2022/09/09 03:25:12;;;;;;;5.10;4.80;;;16.10;99.90;;;;;;5128113;27;20241;-68
2022/09/09 03:27:39;;;;;;;4.80;4.40;;;16.10;99.90;;;;;;5131874;27;20240;-68
2022/09/09 03:30:07;;;;;;;5.00;4.60;;;16.10;99.90;;;;;;5132560;27;20201;-68
2022/09/09 03:32:34;;;;;;;4.97;4.57;;;16.10;99.90;;;;;;5132049;27;20625;-67
2022/09/09 03:35:00;;;;;;;5.43;5.03;;;16.10;99.90;;;;;;5132052;27;20201;-68
2022/09/09 03:37:29;;;;;;;6.67;4.70;;;16.10;99.90;;;;;;5130743;27;20201;-68
2022/09/09 03:39:55;;;;;;;5.20;4.80;;;16.10;99.90;;;;;;5116204;27;20198;-69
2022/09/09 03:42:22;;;;;;;5.30;4.90;;;16.00;99.90;;;;;;5111233;27;20206;-69
2022/09/09 03:44:50;;;;;;;5.43;5.00;;;16.00;99.90;;;;;;5120216;27;20212;-69
2022/09/09 03:47:18;;;;;;;4.93;4.63;;;16.10;99.90;;;;;;5131487;27;20224;-68
2022/09/09 03:49:46;;;;;;;4.73;4.33;;;15.90;99.90;;;;;;5129987;27;20240;-68
2022/09/09 03:52:13;;;;;;;4.97;4.30;;;15.90;99.90;;;;;;5131684;27;20292;-68
2022/09/09 03:54:42;;;;;;;5.27;4.67;;;15.90;99.90;;;;;;5119774;27;20210;-69
2022/09/09 03:57:10;;;;;;;4.80;4.50;;;15.90;99.90;;;;;;5111046;28;20207;-69
2022/09/09 03:59:38;;;;;;;6.43;4.20;;;15.90;99.90;;;;;;5110839;28;20732;-68
2022/09/09 04:02:05;;;;;;;6.07;4.37;;;15.90;99.90;;;;;;5111495;27;20301;-69
2022/09/09 04:04:32;;;;;;;5.53;4.73;;;15.90;99.90;;;;;;5118028;27;20674;-68
2022/09/09 04:06:58;;;;;;;4.33;4.00;;;15.90;99.90;;;;;;5130843;27;20209;-69
2022/09/09 04:09:25;;;;;;;4.50;4.23;;;15.90;99.90;;;;;;5131277;27;20313;-69
2022/09/09 04:11:54;;;;;;;4.47;4.23;;;16.00;99.90;;;;;;5131332;27;20202;-68
2022/09/09 04:14:21;;;;;;;5.23;4.43;;;16.00;99.90;;;;;;5111072;27;20198;-68
2022/09/09 04:16:48;;;;;;;4.13;3.93;;;16.00;99.90;;;;;;5110176;28;20210;-69
2022/09/09 04:19:15;;;;;;;4.77;4.47;;;16.00;99.90;;;;;;5120339;27;20606;-69
2022/09/09 04:21:43;;;;;;;4.50;4.20;;;16.00;99.90;;;;;;5129084;27;20212;-69
2022/09/09 04:24:10;;;;;;;4.60;4.30;;;15.90;99.90;;;;;;5123078;27;20205;-69
2022/09/09 04:26:37;;;;;;;6.43;4.50;;;16.00;99.90;;;;;;5130273;27;20201;-68
2022/09/09 04:29:07;;;;;;;6.67;4.20;;;16.00;99.90;;;;;;5130958;27;20217;-69
2022/09/09 04:31:34;;;;;;;4.80;4.17;;;16.00;99.90;;;;;;5111192;27;20680;-68
2022/09/09 04:34:04;;;;;;;4.40;4.00;;;16.00;99.90;;;;;;5111623;27;20198;-68
2022/09/09 04:36:32;;;;;;;4.50;4.10;;;15.90;99.90;;;;;;5109405;28;20190;-68
2022/09/09 04:38:59;;;;;;;4.40;4.10;;;15.90;99.90;;;;;;5109629;28;20684;-68
2022/09/09 04:41:26;;;;;;;4.13;3.90;;;16.00;99.90;;;;;;5110174;28;20206;-68
2022/09/09 04:43:53;;;;;;;5.73;4.10;;;15.90;99.90;;;;;;5110892;27;20248;-68
2022/09/09 04:46:22;;;;;;;4.10;3.30;;;15.90;99.90;;;;;;5128460;27;20271;-68
2022/09/09 04:48:49;;;;;;;3.83;3.53;;;15.90;99.90;;;;;;5129997;27;20607;-67
2022/09/09 04:51:17;;;;;;;5.20;3.50;;;15.90;99.90;;;;;;5130237;27;20624;-68
2022/09/09 04:53:43;;;;;;;4.30;3.67;;;16.00;99.90;;;;;;5130663;27;20224;-67
2022/09/09 04:56:12;;;;;;;4.77;3.50;;;15.90;99.90;;;;;;5130271;27;20208;-67
2022/09/09 04:58:41;;;;;;;3.60;3.37;;;16.00;99.90;;;;;;5122140;27;20209;-68
2022/09/09 05:01:10;;;;;;;4.13;3.70;;;15.90;99.90;;;;;;5121337;27;20236;-67
2022/09/09 05:03:38;;;;;;;4.43;3.47;;;15.90;99.90;;;;;;5130204;27;20205;-67
2022/09/09 05:06:10;;;;;;;3.70;3.40;;;15.90;99.90;;;;;;5130186;27;20430;-67
2022/09/09 05:08:37;;;;;;;3.97;3.53;;;15.90;99.90;;;;;;5129607;27;20229;-68
2022/09/09 05:11:15;;;;;;;5.37;3.10;;;15.90;99.90;;;;;;5119371;27;20217;-68
2022/09/09 05:13:42;;;;;;;3.93;2.97;;;15.90;99.90;;;;;;5109586;28;20193;-68
2022/09/09 05:16:11;;;;;;;4.50;3.40;;;15.90;99.90;;;;;;5109559;28;20206;-67
2022/09/09 05:18:39;;;;;;;3.50;3.20;;;16.00;99.90;;;;;;5109154;27;20214;-68
2022/09/09 05:21:09;;;;;;;3.70;3.50;;;15.90;99.90;;;;;;5109519;27;20210;-68
2022/09/09 05:23:37;;;;;;;3.33;3.03;;;15.90;99.90;;;;;;5123759;27;20212;-68
2022/09/09 05:26:07;;;;;;;5.83;3.53;;;15.90;99.90;;;;;;5129818;27;20977;-68
2022/09/09 05:28:36;;;;;;;4.07;3.00;;;15.90;99.90;;;;;;5129697;27;20585;-68
2022/09/09 05:31:07;;;;;;;4.63;3.53;;;15.90;99.90;;;;;;5129856;27;20286;-67
2022/09/09 05:33:35;;;;;;;3.20;2.70;;;15.90;99.90;;;;;;5129829;27;20198;-67
2022/09/09 05:36:07;;;;;;;3.93;3.10;;;15.90;99.90;;;;;;5110956;27;20657;-67
2022/09/09 05:38:35;;;;;;;2.87;2.60;;;16.00;99.90;;;;;;5108941;28;20194;-67
2022/09/09 05:41:05;;;;;;;3.33;3.10;;;15.90;99.90;;;;;;5109029;28;20267;-67
2022/09/09 05:43:32;;;;;;;3.70;3.20;;;15.90;99.90;;;;;;5107782;28;20245;-67
2022/09/09 05:46:06;;;;;;;2.90;2.70;;;15.90;99.90;;;;;;5108968;27;20682;-67
2022/09/09 05:48:34;;;;;;;2.97;2.77;;;15.90;99.90;;;;;;5106419;28;20240;-68
2022/09/09 05:51:07;;;;;;;2.93;2.70;;;15.90;99.90;;;;;;5106633;28;20209;-67
2022/09/09 05:53:34;;;;;;;3.20;3.00;;;15.90;99.90;;;;;;5116353;27;20213;-67
2022/09/09 05:56:07;;;;;;;4.77;3.00;;;15.90;99.90;;;;;;5125161;27;20250;-67
2022/09/09 05:58:34;;;;;;;2.70;2.50;;;15.90;99.90;;;;;;5106236;28;20190;-67
2022/09/09 06:01:07;;;;;;;3.47;2.87;;;16.00;99.90;;;;;;5105951;28;20679;-67
2022/09/09 06:03:35;;;;;;;2.97;2.77;;;15.90;99.90;;;;;;5106289;28;20248;-67
2022/09/09 06:06:07;;;;;;;2.80;2.50;;;15.90;99.90;;;;;;5111083;27;20213;-67
2022/09/09 06:08:36;;;;;;;2.80;2.60;;;16.00;99.90;;;;;;5106780;28;20221;-67
2022/09/09 06:11:07;;;;;;;2.87;2.67;;;16.00;99.90;;;;;;5106668;28;20206;-67
2022/09/09 06:13:34;;;;;;;2.63;2.47;;;16.00;99.90;;;;;;5114378;27;20676;-67
2022/09/09 06:16:01;;;;;;;2.93;2.73;;;16.00;99.90;;;;;;5109466;27;20214;-68
2022/09/09 06:18:29;;;;;;;3.33;2.73;;;16.10;99.90;;;;;;5124180;27;20209;-68
2022/09/09 06:20:57;;;;;;;3.17;2.87;;;16.10;99.90;;;;;;5126401;27;20209;-67
2022/09/09 06:23:27;;;;;;;4.37;2.90;;;16.10;99.90;;;;;;5127386;27;20222;-67
2022/09/09 06:26:05;;;;;;;4.07;2.53;;;16.00;99.90;;;;;;5134380;27;20201;-67
2022/09/09 06:28:32;;;;;;;2.67;2.50;;;16.10;99.90;;;;;;5105670;28;20590;-66
2022/09/09 06:30:59;;;;;;;6.33;3.87;;;16.10;99.90;;;;;;5105580;28;20206;-67
2022/09/09 06:33:27;;;;;;;4.43;2.67;;;16.10;99.90;;;;;;5108294;28;20214;-67
2022/09/09 06:35:54;;;;;;;2.97;2.67;;;16.10;99.90;;;;;;5111805;27;20197;-67
2022/09/09 06:38:22;;;;;;;3.73;2.67;;;16.10;99.90;;;;;;5127162;27;20295;-67
2022/09/09 06:40:54;;;;;;;3.70;3.10;;;16.10;99.90;;;;;;5125528;27;20206;-67
2022/09/09 06:43:21;;;;;;;3.77;2.63;;;16.20;99.90;;;;;;5126677;27;20269;-67
2022/09/09 06:45:55;;;;;;;3.33;2.40;;;16.20;99.90;;;;;;5125137;27;20224;-68
2022/09/09 06:48:21;;;;;;;5.20;2.60;;;16.10;99.90;;;;;;5125243;27;20226;-67
2022/09/09 06:50:49;;;;;;;2.90;2.60;;;16.20;99.90;;;;;;5127009;27;20568;-68
2022/09/09 06:53:18;;;;;;;6.70;2.93;;;16.20;99.90;;;;;;5125434;27;20205;-68
2022/09/09 06:55:46;;;;;;;2.73;2.53;;;16.20;99.90;;;;;;5106609;28;20241;-68
2022/09/09 06:58:14;;;;;;;3.50;2.40;;;16.30;99.90;;;;;;5107252;28;20679;-67
2022/09/09 07:00:41;;;;;;;3.87;2.50;;;16.30;99.90;;;;;;5109862;28;20788;-68
2022/09/09 07:03:07;;;;;;;3.20;2.30;;;16.30;99.90;;;;;;5112134;28;20209;-67
2022/09/09 07:05:34;;;;;;;3.03;2.57;;;16.40;99.90;;;;;;5111622;28;20571;-67
2022/09/09 07:08:02;;;;;;;2.97;2.50;;;16.40;99.90;;;;;;5111709;28;20205;-67
2022/09/09 07:10:29;;;;;;;2.53;2.33;;;16.40;99.90;;;;;;5112666;27;20228;-67
2022/09/09 07:12:55;;;;;;;3.63;2.60;;;16.40;99.90;;;;;;5132289;27;20687;-67
2022/09/09 07:15:24;;;;;;;2.23;2.13;;;16.50;99.90;;;;;;5131975;27;20294;-67
2022/09/09 07:17:52;;;;;;;7.07;2.60;;;16.60;99.90;;;;;;5132041;27;20300;-67
2022/09/09 07:20:20;;;;;;;3.13;2.60;;;16.60;99.90;;;;;;5129123;27;20205;-67
2022/09/09 07:22:46;;;;;;;5.43;2.50;;;16.70;99.90;;;;;;5111555;28;20202;-67
2022/09/09 07:25:14;;;;;;;2.63;2.43;;;16.70;99.90;;;;;;5128172;27;20217;-68
2022/09/09 07:27:40;;;;;;;2.60;2.40;;;16.80;99.90;;;;;;5130125;27;20947;-67
2022/09/09 07:30:08;;;;;;;2.70;2.50;;;16.90;99.90;;;;;;5131685;27;20225;-67
2022/09/09 07:32:36;;;;;;;3.87;2.40;;;16.90;99.90;;;;;;5131571;27;20585;-66
2022/09/09 07:35:04;;;;;;;4.10;2.37;;;17.00;99.90;;;;;;5124759;27;20202;-67
2022/09/09 07:37:30;;;;;;;4.17;2.23;;;17.00;99.90;;;;;;5111529;28;20202;-67
2022/09/09 07:39:57;;;;;;;3.47;2.03;;;17.10;99.90;;;;;;5111291;28;20213;-67
2022/09/09 07:42:24;;;;;;;3.87;1.97;;;17.20;99.90;;;;;;5111169;28;20202;-68
2022/09/09 07:44:54;;;;;;;2.10;1.90;;;17.20;99.90;;;;;;5115767;27;20660;-67
2022/09/09 07:47:21;;;;;;;2.57;2.37;;;17.30;99.90;;;;;;5118394;27;20809;-67
2022/09/09 07:49:49;;;;;;;3.10;2.70;;;17.30;99.90;;;;;;5126166;27;20236;-67
2022/09/09 07:52:16;;;;;;;2.23;2.10;;;17.40;99.90;;;;;;5130834;27;20205;-67
2022/09/09 07:54:45;;;;;;;4.47;2.30;;;17.40;99.90;;;;;;5130031;27;20258;-68
2022/09/09 07:57:12;;;;;;;2.00;1.77;;;17.50;99.90;;;;;;5131586;27;20288;-67
2022/09/09 07:59:39;;;;;;;2.07;1.77;;;17.50;99.90;;;;;;5129781;27;20209;-67
2022/09/09 08:02:06;;;;;;;3.20;2.33;;;17.60;99.90;;;;;;5131011;27;20220;-67
2022/09/09 08:04:33;;;;;;;3.40;2.20;;;17.70;99.90;;;;;;5131285;27;20228;-67
2022/09/09 08:07:03;;;;;;;2.57;2.17;;;17.80;99.90;;;;;;5127058;27;20204;-66
2022/09/09 08:09:32;;;;;;;3.00;1.80;;;17.90;99.90;;;;;;5118599;27;20221;-67
2022/09/09 08:11:59;;;;;;;5.47;2.00;;;17.90;99.90;;;;;;5130092;27;20197;-67
2022/09/09 08:14:27;;;;;;;2.37;1.80;;;18.00;99.90;;;;;;5130173;27;20409;-67
2022/09/09 08:16:54;;;;;;;3.90;2.40;;;18.10;99.90;;;;;;5130993;27;20201;-67
2022/09/09 08:19:20;;;;;;;2.57;1.87;;;18.10;99.90;;;;;;5130986;27;20918;-67
2022/09/09 08:21:48;;;;;;;2.67;1.80;;;18.10;99.90;;;;;;5117107;27;20202;-67
2022/09/09 08:24:19;;;;;;;3.13;1.83;;;18.00;99.90;;;;;;5118632;27;20212;-67
2022/09/09 08:26:48;;;;;;;2.23;1.70;;;18.10;99.90;;;;;;5111758;27;20194;-67
2022/09/09 08:29:16;;;;;;;6.73;1.90;;;18.10;99.90;;;;;;5110369;28;20226;-67
2022/09/09 08:31:45;;;;;;;2.10;1.80;;;18.10;99.90;;;;;;5110645;27;20214;-67
2022/09/09 08:34:12;;;;;;;3.33;1.80;;;18.20;99.90;;;;;;5123799;27;20968;-67
2022/09/09 08:36:42;;;;;;;4.00;1.80;;;18.20;99.90;;;;;;5130352;27;20726;-67
2022/09/09 08:39:10;;;;;;;2.40;1.60;;;18.20;99.90;;;;;;5121192;27;20206;-67
2022/09/09 08:42:14;;;;;;;1.50;1.50;;;18.20;99.90;;;;;;5110260;28;20512;-67
2022/09/09 08:45:03;;;;;;;3.90;1.77;;;18.30;99.90;;;;;;5117209;27;20232;-67
2022/09/09 08:47:40;;;;;;;3.37;1.80;;;18.30;99.90;;;;;;5119244;27;20809;-67
2022/09/09 08:50:19;;;;;;;2.93;1.50;;;18.30;99.90;;;;;;5130479;27;20220;-67
2022/09/09 08:52:53;;;;;;;2.30;1.60;;;18.30;99.90;;;;;;5130587;27;20186;-67
2022/09/09 08:55:29;;;;;;;1.57;1.47;;;18.30;99.90;;;;;;5114863;27;20572;-67
2022/09/09 08:58:01;;;;;;;4.90;1.50;;;18.30;99.90;;;;;;5120523;27;20639;-67
2022/09/09 09:00:37;;;;;;;4.20;2.03;;;18.30;99.90;;;;;;5129786;27;20288;-68
2022/09/09 09:03:11;;;;;;;1.50;1.40;;;18.40;99.90;;;;;;5127777;27;20185;-66
2022/09/09 09:05:47;;;;;;;1.80;1.50;;;18.40;99.90;;;;;;5118716;27;20193;-68
2022/09/09 09:08:28;;;;;;;2.00;1.80;;;18.40;99.90;;;;;;5130292;27;20228;-68
2022/09/09 09:10:58;;;;;;;1.77;1.67;;;18.50;99.90;;;;;;5130098;27;20225;-68
2022/09/09 09:13:38;;;;;;;6.57;1.80;;;18.50;99.90;;;;;;5130107;27;20197;-68
2022/09/09 09:16:19;;;;;;;3.20;1.70;;;18.60;99.90;;;;;;5115943;27;20190;-68
2022/09/09 09:18:46;;;;;;;2.90;1.80;;;18.60;99.90;;;;;;5109648;28;20197;-68
2022/09/09 09:21:18;;;;;;;2.00;1.70;;;18.70;99.90;;;;;;5125011;27;20201;-68
2022/09/09 09:23:52;;;;;;;3.13;1.60;;;18.70;99.90;;;;;;5128866;27;20232;-68
2022/09/09 09:26:19;;;;;;;3.57;1.57;;;18.80;99.90;;;;;;5112253;27;20205;-68
2022/09/09 09:28:48;;;;;;;4.67;1.63;;;18.90;99.90;;;;;;5122075;27;20258;-68
2022/09/09 09:31:14;;;;;;;2.30;1.77;;;19.10;99.90;;;;;;5129145;27;20703;-68
2022/09/09 09:33:49;;;;;;;3.17;1.70;;;19.20;99.90;;;;;;5129625;27;20209;-68
2022/09/09 09:36:16;;;;;;;1.83;1.47;;;19.30;99.90;;;;;;5115593;27;20601;-68
2022/09/09 09:38:55;;;;;;;3.50;1.70;;;19.40;99.90;;;;;;5108521;28;20755;-68
2022/09/09 09:41:34;;;;;;;2.50;1.50;;;19.40;99.90;;;;;;5117146;27;20225;-68
2022/09/09 09:44:04;;;;;;;5.23;1.67;;;19.50;99.90;;;;;;5147657;27;20228;-68
2022/09/09 09:46:31;;;;;;;2.00;1.33;;;19.50;99.90;;;;;;5127902;27;20209;-68
2022/09/09 09:48:59;;;;;;;4.43;1.80;;;19.60;99.90;;;;;;5129501;27;20206;-68
2022/09/09 09:51:27;;;;;;;3.20;1.57;;;19.60;99.90;;;;;;5128993;27;20282;-69
2022/09/09 09:53:55;;;;;;;5.77;2.00;;;19.70;99.90;;;;;;5134299;27;20667;-68
2022/09/09 09:56:28;;;;;;;3.73;2.27;;;19.80;99.90;;;;;;5124709;27;20206;-68
2022/09/09 09:58:56;;;;;;;2.07;1.30;;;19.90;99.90;;;;;;5115224;27;20666;-68
2022/09/09 10:01:27;;;;;;;2.33;1.30;;;20.00;99.90;;;;;;5127756;27;20201;-67
2022/09/09 10:03:55;;;;;;;3.67;1.60;;;20.00;99.90;;;;;;5129185;27;20281;-67
2022/09/09 10:06:32;;;;;;;4.90;1.57;;;20.10;99.90;;;;;;5128307;27;20675;-68
2022/09/09 10:08:59;;;;;;;2.17;1.60;;;20.00;99.90;;;;;;5128676;27;20972;-68
2022/09/09 10:11:37;;;;;;;3.73;1.60;;;20.00;99.90;;;;;;5122483;27;20538;-67
2022/09/09 10:14:14;;;;;;;2.50;1.67;;;20.00;99.90;;;;;;5108322;28;20272;-67
2022/09/09 10:16:56;;;;;;;2.70;1.60;;;20.10;99.90;;;;;;5107922;28;20190;-66
2022/09/09 10:19:31;;;;;;;2.17;1.50;;;20.10;99.90;;;;;;5108118;28;20277;-67
2022/09/09 10:22:07;;;;;;;1.87;1.67;;;20.10;99.90;;;;;;5108190;28;20270;-67
2022/09/09 10:24:51;;;;;;;3.17;1.50;;;20.20;99.90;;;;;;5115949;27;20197;-67
2022/09/09 10:27:25;;;;;;;2.13;1.40;;;20.20;99.90;;;;;;5108141;28;20210;-67
2022/09/09 10:30:08;;;;;;;3.63;1.57;;;20.30;99.90;;;;;;5107998;28;20670;-67
2022/09/09 10:32:46;;;;;;;2.93;1.47;;;20.30;99.90;;;;;;5107882;28;20245;-67
2022/09/09 10:35:25;;;;;;;3.20;1.30;;;20.30;99.90;;;;;;5109631;27;20194;-67
2022/09/09 10:38:14;;;;;;;2.13;1.67;;;20.40;99.90;;;;;;5132135;27;20654;-67
2022/09/09 10:40:51;;;;;;;3.43;1.60;;;20.50;99.90;;;;;;5107769;28;20548;-67
2022/09/09 10:43:33;;;;;;;1.75;1.33;;;20.50;99.90;;;;;;5107674;28;20312;-67
2022/09/09 10:46:11;;;;;;;1.20;1.20;;;20.70;99.90;;;;;;5125293;27;20235;-67
2022/09/09 10:48:55;;;;;;;2.88;1.30;;;20.80;99.90;;;;;;5107666;28;20652;-67
2022/09/09 10:51:29;;;;;;;3.47;1.40;;;21.00;99.90;;;;;;5107751;28;20224;-67
2022/09/09 10:54:18;;;;;;;3.63;1.30;;;21.10;99.90;;;;;;5117692;27;20208;-67
2022/09/09 10:56:51;;;;;;;4.05;1.40;;;21.20;99.90;;;;;;5128017;27;20568;-67
2022/09/09 10:59:23;;;;;;;1.65;1.55;;;21.40;99.90;;;;;;5124750;27;20271;-67
2022/09/09 11:01:54;;;;;;;2.80;1.63;;;21.50;99.90;;;;;;5107613;28;20224;-67
2022/09/09 11:04:26;;;;;;;2.55;1.25;;;21.60;99.90;;;;;;5107673;28;20193;-67
2022/09/09 11:06:56;;;;;;;4.00;1.55;;;21.70;99.90;;;;;;5107360;28;20817;-67
2022/09/09 11:09:25;;;;;;;1.27;1.17;;;21.80;99.90;;;;;;5108023;28;20194;-67
2022/09/09 11:11:55;;;;;;;4.20;1.23;;;21.90;99.90;;;;;;5107869;28;20226;-68
2022/09/09 11:14:30;;;;;;;1.30;1.20;;;21.90;99.90;;;;;;5127707;28;20204;-68
2022/09/09 11:17:00;;;;;;;2.42;1.40;;;22.00;99.90;;;;;;5128116;27;20193;-68
2022/09/09 11:19:35;;;;;;;1.63;1.38;;;22.10;99.90;;;;;;5128362;27;20285;-68
2022/09/09 11:22:05;;;;;;;4.57;1.13;;;22.20;99.90;;;;;;5128372;27;20254;-68
2022/09/09 11:24:37;;;;;;;3.33;1.38;;;22.30;99.90;;;;;;5117315;27;20203;-67
2022/09/09 11:27:12;;;;;;;1.30;1.27;;;22.40;99.90;;;;;;5107505;28;20288;-68
2022/09/09 11:30:06;;;;;;;2.70;1.10;;;22.60;99.90;;;;;;5107701;28;20198;-68
2022/09/09 11:33:01;;;;;;;2.80;1.98;;;22.70;99.90;;;;;;5109694;28;20281;-68
2022/09/09 11:35:41;;;;;;;1.08;0.90;;;22.90;99.90;;;;;;5127905;27;20224;-68
2022/09/09 11:38:22;;;;;;;2.05;0.90;;;23.00;99.90;;;;;;5122971;27;20213;-66
2022/09/09 11:40:57;;;;;;;3.08;1.00;;;23.10;99.90;;;;;;5107483;28;20205;-67
2022/09/09 11:43:27;;;;;;;1.50;0.75;;;23.20;99.90;;;;;;5107280;28;20234;-67
2022/09/09 11:45:58;;;;;;;2.05;1.00;;;23.30;99.90;;;;;;5117221;28;20202;-67
2022/09/09 11:48:29;;;;;;;2.08;1.05;;;23.50;99.90;;;;;;5125094;27;20248;-67
2022/09/09 11:51:07;;;;;;;2.08;1.08;;;23.60;99.90;;;;;;5117390;27;20269;-66
2022/09/09 11:53:34;;;;;;;1.92;1.10;;;23.70;99.90;;;;;;5127329;27;20303;-67
2022/09/09 11:56:11;;;;;;;2.38;1.20;;;23.70;99.90;;;;;;5117392;27;20221;-67
2022/09/09 11:58:42;;;;;;;5.10;1.30;;;23.80;99.90;;;;;;5111122;28;20418;-67
2022/09/09 12:01:31;;;;;;;2.30;1.00;;;24.00;99.90;;;;;;5110656;28;20220;-67
2022/09/09 12:04:18;;;;;;;1.63;1.00;;;23.80;99.90;;;;;;5110505;28;20202;-67
2022/09/09 12:06:50;;;;;;;1.45;0.85;;;23.90;99.90;;;;;;5124420;27;20201;-67
2022/09/09 12:09:25;;;;;;;0.95;0.90;;;24.00;99.90;;;;;;5110795;28;20194;-67
2022/09/09 12:11:53;;;;;;;1.13;0.93;;;24.10;99.90;;;;;;5110355;28;20583;-67
2022/09/09 12:14:35;;;;;;;2.05;1.00;;;24.10;99.90;;;;;;5110586;28;20216;-66
2022/09/09 12:17:11;;;;;;;3.00;1.05;;;24.00;99.90;;;;;;5113823;27;20321;-67
2022/09/09 12:19:37;;;;;;;1.17;1.02;;;23.80;99.90;;;;;;5130770;27;20201;-67
2022/09/09 12:22:17;;;;;;;3.97;3.65;;;23.70;99.90;;;;;;5130676;27;20206;-67
2022/09/09 12:24:50;;;;;;;5.00;2.20;;;23.70;99.90;;;;;;5143042;27;20201;-67
2022/09/09 12:27:25;;;;;;;3.25;1.05;;;23.60;99.90;;;;;;5151780;27;20189;-67
2022/09/09 12:29:59;;;;;;;2.60;1.33;;;23.40;99.90;;;;;;5138791;27;20189;-67
2022/09/09 12:32:28;;;;;;;1.60;1.02;;;23.20;99.90;;;;;;5130350;27;20221;-66
2022/09/09 12:35:00;;;;;;;2.35;0.90;;;23.30;99.90;;;;;;5130349;27;20205;-66
2022/09/09 12:37:33;;;;;;;1.77;1.40;;;23.40;99.90;;;;;;5130443;27;20194;-66
2022/09/09 12:40:02;;;;;;;2.15;1.33;;;23.60;99.90;;;;;;5128457;27;20288;-67
2022/09/09 12:42:30;;;;;;;2.88;1.27;;;23.70;99.90;;;;;;5115122;27;20625;-67
2022/09/09 12:44:58;;;;;;;2.08;1.00;;;23.90;99.90;;;;;;5110153;28;20206;-67
2022/09/09 12:47:40;;;;;;;2.03;1.08;;;24.10;99.90;;;;;;5118944;27;20221;-67
2022/09/09 12:50:17;;;;;;;2.50;1.17;;;24.30;99.90;;;;;;5110842;27;20206;-67
2022/09/09 12:52:47;;;;;;;1.77;1.20;;;24.40;99.90;;;;;;5109769;27;20660;-67
2022/09/09 12:55:19;;;;;;;1.95;1.10;;;24.30;99.90;;;;;;5125743;27;20574;-68
2022/09/09 12:57:46;;;;;;;2.35;1.20;;;24.10;99.90;;;;;;5130305;27;20190;-68
2022/09/09 13:00:17;;;;;;;2.83;1.20;;;23.90;99.90;;;;;;5130017;27;20205;-68
2022/09/09 13:02:50;;;;;;;3.58;1.25;;;23.80;99.90;;;;;;5125716;27;20198;-68
2022/09/09 13:05:19;;;;;;;2.75;0.98;;;23.60;99.90;;;;;;5109609;28;20205;-67
2022/09/09 13:07:48;;;;;;;4.50;1.13;;;23.40;99.90;;;;;;5109599;28;20257;-68
2022/09/09 13:10:20;;;;;;;3.53;1.08;;;23.30;99.90;;;;;;5109480;27;20203;-67